Allingtown, Connecticut
Current Conditions -  °F | °C
As of 5:53 PM on Sunday 21 Dec 2014 (Local Time) from KHVN Reporting Station
Haze Haze  
Wind Chill: -2°   Ceiling: 600
Heat Index:   Visibility: 3mi
Dew Point: -1°   Wind: 9mph
Humidity: 82%   Direction: 360°N
Pressure: 30.3"   Gusts: NA
Location:  41.2716°N, 72.9666°W
Report Text: KHVN 212253Z 36008KT 3SM HZ BKN006 BKN018 OVC026 02/M01 A3030 RMK AO2 SNB00E06 SLP261 P0000 T00221006
Loading
Personal Weather Stations






























Interactive Weather Map New forecast layout! Learn more

10-Day Weather Forecast

Advertisements
Track Severe Weather on mobile